Bookmark and Share
Track history (hours):
 

Marina Lobra

Last reported at 2014-Apr-24 10:32 UTC. Time now 2014-Apr-24 11:26 UTC.
Position N 40°50' E 014°17'.

Length 56 m; draft 3.2 m.

Type: Ship (hazmat cat C). MMSI: 247188300.

NotesDate/timePositionNaut miles runAvg speedWind from/ knotsBaromVisibWave heightAir tempDewpointWater temp
2014-Apr-24 10:32N 40°50' E 014°17'0 0.0
2014-Apr-24 09:33N 40°50' E 014°17'0 0.0
2014-Apr-24 08:13N 40°50' E 014°17'0 0.0
2014-Apr-24 06:17N 40°50' E 014°17'1 0.0
2014-Apr-23 12:10N 40°50' E 014°16'1 1.2
2014-Apr-23 11:30N 40°50' E 014°17'0 0.0
2014-Apr-23 10:32N 40°50' E 014°17'0 0.0
2014-Apr-23 09:33N 40°50' E 014°17'0 0.1
2014-Apr-23 08:27N 40°50' E 014°17'0 0.0
2014-Apr-23 07:15N 40°50' E 014°17'0 0.0
2014-Apr-23 06:25N 40°50' E 014°17'1 0.1
2014-Apr-22 11:22N 40°50' E 014°15'2 1.7
2014-Apr-22 10:27N 40°50' E 014°17'0 0.1
2014-Apr-22 09:33N 40°50' E 014°17'0 0.0
2014-Apr-22 08:10N 40°50' E 014°17'0 0.0
2014-Apr-22 06:19N 40°50' E 014°17'  
2014-Apr-17 23:23N 40°33' E 014°14'0 0.0
2014-Apr-17 22:34N 40°33' E 014°14'0 0.0
2014-Apr-17 21:33N 40°33' E 014°14'0 0.0
2014-Apr-17 20:33N 40°33' E 014°14'0 0.0
2014-Apr-17 19:33N 40°33' E 014°14'0 0.2
2014-Apr-17 18:33N 40°33' E 014°15'0 0.4
2014-Apr-17 17:33N 40°34' E 014°14'5 5.4
2014-Apr-17 16:33N 40°39' E 014°15'6 5.7
2014-Apr-17 15:33N 40°45' E 014°16'6 0.2
2014-Apr-16 15:33N 40°51' E 014°16'1 1.2
2014-Apr-16 14:32N 40°50' E 014°17'0 0.0
2014-Apr-16 13:33N 40°50' E 014°17'0 0.0
2014-Apr-16 12:33N 40°50' E 014°17'0 0.0
2014-Apr-16 11:27N 40°50' E 014°17'0 0.0
2014-Apr-16 10:33N 40°50' E 014°17'0 0.0
2014-Apr-16 09:33N 40°50' E 014°17'0 0.0
2014-Apr-16 08:33N 40°50' E 014°17'0 0.0
2014-Apr-16 07:33N 40°50' E 014°17'0 0.0
2014-Apr-16 06:33N 40°50' E 014°17'0 0.0
2014-Apr-14 11:34N 40°50' E 014°17'0 0.0
2014-Apr-14 10:33N 40°50' E 014°17'  

Dump ship's entire track history

sailing weather and tide predictions

Marina Lobra — IXVN — position and weather